createdAt,value
2019-04-04T00:01:44.362Z,7.49
2019-04-04T00:04:14.208Z,7.51
2019-04-04T00:06:44.045Z,7.49
2019-04-04T00:09:13.942Z,7.52
2019-04-04T00:11:46.187Z,7.56
2019-04-04T00:14:15.926Z,7.60
2019-04-04T00:16:46.775Z,7.69
2019-04-04T00:19:18.334Z,7.73
2019-04-04T00:21:48.339Z,7.67
2019-04-04T00:24:19.330Z,7.67
2019-04-04T00:26:49.244Z,7.69
2019-04-04T00:29:19.032Z,7.63
2019-04-04T00:31:49.872Z,7.53
2019-04-04T00:34:21.363Z,7.45
2019-04-04T00:36:51.254Z,7.43
2019-04-04T00:39:21.475Z,7.43
2019-04-04T00:41:51.389Z,7.42
2019-04-04T00:44:23.033Z,7.45
2019-04-04T00:46:53.455Z,7.43
2019-04-04T00:49:23.329Z,7.27
2019-04-04T00:51:53.898Z,7.39
2019-04-04T00:54:23.757Z,7.33
2019-04-04T00:56:53.640Z,7.30
2019-04-04T00:59:24.198Z,7.29
2019-04-04T01:01:55.065Z,7.30
2019-04-04T01:04:25.835Z,7.26
2019-04-04T01:06:56.623Z,7.26
2019-04-04T01:09:26.570Z,7.24
2019-04-04T01:11:56.648Z,7.16
2019-04-04T01:14:27.149Z,7.16
2019-04-04T01:16:58.007Z,7.21
2019-04-04T01:19:27.862Z,7.21
2019-04-04T01:21:57.669Z,7.19
2019-04-04T01:24:29.112Z,7.13
2019-04-04T01:27:00.017Z,7.12
2019-04-04T01:29:29.806Z,7.15
2019-04-04T01:31:59.685Z,7.15
2019-04-04T01:34:29.509Z,7.14
2019-04-04T01:36:59.403Z,7.13
2019-04-04T01:39:31.334Z,7.13
2019-04-04T01:42:01.507Z,7.09
2019-04-04T01:44:31.318Z,7.05
2019-04-04T01:47:01.152Z,7.00
2019-04-04T01:49:31.067Z,7.02
2019-04-04T01:52:01.074Z,7.03
2019-04-04T01:54:32.039Z,7.14
2019-04-04T01:57:01.993Z,7.28
2019-04-04T01:59:31.938Z,7.42
2019-04-04T02:02:01.809Z,7.48
2019-04-04T02:04:32.148Z,7.48
2019-04-04T02:07:02.126Z,7.49
2019-04-04T02:09:34.097Z,7.58
2019-04-04T02:12:03.533Z,7.65
2019-04-04T02:14:33.542Z,7.65
2019-04-04T02:17:03.382Z,7.65
2019-04-04T02:19:33.151Z,7.68
2019-04-04T02:22:03.103Z,7.71
2019-04-04T02:24:32.949Z,7.72
2019-04-04T02:27:02.866Z,7.79
2019-04-04T02:29:33.432Z,7.81
2019-04-04T02:32:06.527Z,7.87
2019-04-04T02:34:37.862Z,7.93
2019-04-04T02:37:08.956Z,7.91
2019-04-04T02:39:39.952Z,7.96
2019-04-04T02:42:09.879Z,7.99
2019-04-04T02:44:39.787Z,8.01
2019-04-04T02:47:10.184Z,8.05
2019-04-04T02:49:40.634Z,8.09
2019-04-04T02:52:13.213Z,8.09
2019-04-04T02:54:42.243Z,8.08
2019-04-04T02:57:12.185Z,8.09
2019-04-04T02:59:44.913Z,8.19
2019-04-04T03:02:14.896Z,8.21
2019-04-04T03:04:46.793Z,8.11
2019-04-04T03:07:16.521Z,8.06
2019-04-04T03:09:46.621Z,8.05
2019-04-04T03:12:17.050Z,7.97
2019-04-04T03:14:50.280Z,7.91
2019-04-04T03:17:18.815Z,7.87
2019-04-04T03:19:48.920Z,7.93
2019-04-04T03:22:18.914Z,7.97
2019-04-04T03:24:48.752Z,7.98
2019-04-04T03:27:18.745Z,8.00
2019-04-04T03:29:49.814Z,8.01
2019-04-04T03:32:19.556Z,8.09
2019-04-04T03:34:51.253Z,8.15
2019-04-04T03:37:21.193Z,8.15
2019-04-04T03:39:53.094Z,8.20
2019-04-04T03:42:23.954Z,8.20
2019-04-04T03:44:54.401Z,8.05
2019-04-04T03:47:25.420Z,7.94
2019-04-04T03:49:57.653Z,7.86
2019-04-04T03:52:27.574Z,7.81
2019-04-04T03:54:57.686Z,7.69
2019-04-04T03:57:27.599Z,7.63
2019-04-04T03:59:58.372Z,7.56
2019-04-04T04:02:28.345Z,7.58
2019-04-04T04:05:00.892Z,7.61
2019-04-04T04:07:29.905Z,7.69
2019-04-04T04:10:00.481Z,7.73
2019-04-04T04:12:31.474Z,7.73
2019-04-04T04:15:01.681Z,7.80
2019-04-04T04:17:31.657Z,7.90
2019-04-04T04:20:04.196Z,7.78
2019-04-04T04:22:33.268Z,7.86
2019-04-04T04:25:03.898Z,7.99
2019-04-04T04:27:35.034Z,8.09
2019-04-04T04:30:07.445Z,8.11
2019-04-04T04:32:37.666Z,8.13
2019-04-04T04:35:09.155Z,8.13
2019-04-04T04:37:39.458Z,8.13
2019-04-04T04:40:13.802Z,8.10
2019-04-04T04:42:41.079Z,8.10
2019-04-04T04:45:12.298Z,8.08
2019-04-04T04:47:42.597Z,8.07
2019-04-04T04:50:12.974Z,8.09
2019-04-04T04:52:46.489Z,8.06
2019-04-04T04:55:15.707Z,8.07
2019-04-04T04:57:45.582Z,8.08
2019-04-04T05:00:16.722Z,8.07
2019-04-04T05:02:46.701Z,8.06
2019-04-04T05:05:18.499Z,8.08
2019-04-04T05:07:48.945Z,8.13
2019-04-04T05:10:18.993Z,8.14
2019-04-04T05:12:48.900Z,8.16
2019-04-04T05:15:21.245Z,8.09
2019-04-04T05:17:50.488Z,8.04
2019-04-04T05:20:20.374Z,7.95
2019-04-04T05:22:50.206Z,7.91
2019-04-04T05:25:20.041Z,7.92
2019-04-04T05:27:49.917Z,7.85
2019-04-04T05:30:20.627Z,7.89
2019-04-04T05:32:56.565Z,7.80
2019-04-04T05:35:26.947Z,7.77
2019-04-04T05:37:58.189Z,7.74
2019-04-04T05:40:30.632Z,7.64
2019-04-04T05:43:00.009Z,7.60
2019-04-04T05:45:29.980Z,7.66
2019-04-04T05:48:00.004Z,7.76
2019-04-04T05:50:31.043Z,7.80
2019-04-04T05:53:02.135Z,7.84
2019-04-04T05:55:32.694Z,7.79
2019-04-04T05:58:02.715Z,7.75
2019-04-04T06:00:32.560Z,7.71
2019-04-04T06:03:02.310Z,7.67
2019-04-04T06:05:32.197Z,7.64
2019-04-04T06:08:02.207Z,7.69
2019-04-04T06:10:32.129Z,7.90
2019-04-04T06:13:02.010Z,8.08
2019-04-04T06:15:32.261Z,8.11
2019-04-04T06:18:02.636Z,8.21
2019-04-04T06:20:32.691Z,8.25
2019-04-04T06:23:02.725Z,8.10
2019-04-04T06:25:35.571Z,7.96
2019-04-04T06:28:04.145Z,7.77
2019-04-04T06:30:43.087Z,7.70
2019-04-04T06:33:07.256Z,7.69
2019-04-04T06:35:39.643Z,7.69
2019-04-04T06:38:09.892Z,7.66
2019-04-04T06:40:39.679Z,7.62
2019-04-04T06:43:11.494Z,7.65
2019-04-04T06:45:41.472Z,7.68
2019-04-04T06:48:11.793Z,7.74
2019-04-04T06:50:43.077Z,7.41
2019-04-04T06:53:13.547Z,7.83
2019-04-04T06:55:43.547Z,7.84
2019-04-04T06:58:13.348Z,7.90
2019-04-04T07:00:43.656Z,8.03
2019-04-04T07:03:13.510Z,8.22
2019-04-04T07:05:43.485Z,8.46
2019-04-04T07:08:15.195Z,8.71
2019-04-04T07:10:57.179Z,8.79
2019-04-04T07:13:22.004Z,8.91
2019-04-04T07:16:05.456Z,8.89
2019-04-04T07:18:22.886Z,8.85
2019-04-04T07:20:52.672Z,8.80
2019-04-04T07:23:22.449Z,8.95
2019-04-04T07:25:53.524Z,8.84
2019-04-04T07:28:23.815Z,8.69
2019-04-04T07:30:54.736Z,8.62
2019-04-04T07:33:25.385Z,8.54
2019-04-04T07:35:55.196Z,8.53
2019-04-04T07:38:26.577Z,8.78
2019-04-04T07:40:56.592Z,8.94
2019-04-04T07:43:26.510Z,9.12
2019-04-04T07:45:59.711Z,9.28
2019-04-04T07:48:28.558Z,9.46
2019-04-04T07:50:59.265Z,9.51
2019-04-04T07:53:29.177Z,9.35
2019-04-04T07:56:00.233Z,9.29
2019-04-04T07:58:30.098Z,9.22
2019-04-04T08:01:00.078Z,9.48
2019-04-04T08:03:30.140Z,9.55
2019-04-04T08:05:59.950Z,9.63
2019-04-04T08:08:29.873Z,9.60
2019-04-04T08:10:59.753Z,9.61
2019-04-04T08:13:29.634Z,9.67
2019-04-04T08:15:59.778Z,9.68
2019-04-04T08:18:29.592Z,9.73
2019-04-04T08:20:59.549Z,9.71
2019-04-04T08:23:29.370Z,9.67
2019-04-04T08:25:59.206Z,9.59
2019-04-04T08:28:29.243Z,9.57
2019-04-04T08:30:59.216Z,9.55
2019-04-04T08:33:29.058Z,9.70
2019-04-04T08:36:05.985Z,9.97
2019-04-04T08:38:31.867Z,10.34
2019-04-04T08:41:01.765Z,10.36
2019-04-04T08:43:31.697Z,10.19
2019-04-04T08:46:01.623Z,10.10
2019-04-04T08:48:31.600Z,10.08
2019-04-04T08:51:01.854Z,10.16
2019-04-04T08:53:39.918Z,10.25
2019-04-04T08:56:03.452Z,10.31
2019-04-04T08:58:33.386Z,10.42
2019-04-04T09:01:03.356Z,10.41
2019-04-04T09:03:33.256Z,10.20
2019-04-04T09:06:03.369Z,10.01
2019-04-04T09:08:34.244Z,10.05
2019-04-04T09:11:04.336Z,9.92
2019-04-04T09:13:34.339Z,9.90
2019-04-04T09:16:04.243Z,9.71
2019-04-04T09:18:34.050Z,9.77
2019-04-04T09:21:04.091Z,9.98
2019-04-04T09:23:33.926Z,10.07
2019-04-04T09:26:05.885Z,10.23
2019-04-04T09:28:35.470Z,10.29
2019-04-04T09:31:05.465Z,10.48
2019-04-04T09:33:37.732Z,10.55
2019-04-04T09:36:07.564Z,10.51
2019-04-04T09:38:38.555Z,10.66
2019-04-04T09:41:08.664Z,10.88
2019-04-04T09:43:38.895Z,11.05
2019-04-04T09:46:08.733Z,11.09
2019-04-04T09:48:38.729Z,10.98
2019-04-04T09:51:08.774Z,10.95
2019-04-04T09:53:52.357Z,11.04
2019-04-04T09:56:10.351Z,11.00
2019-04-04T09:58:40.146Z,11.06
2019-04-04T10:01:10.675Z,11.04
2019-04-04T10:03:40.851Z,11.00
2019-04-04T10:06:10.709Z,10.90
2019-04-04T10:08:41.067Z,10.69
2019-04-04T10:11:11.025Z,10.68
2019-04-04T10:13:41.006Z,11.08
2019-04-04T10:16:10.923Z,11.50
2019-04-04T10:18:40.810Z,11.72
2019-04-04T10:21:12.492Z,11.70
2019-04-04T10:23:42.656Z,11.61
2019-04-04T10:26:13.017Z,11.57
2019-04-04T10:28:43.036Z,11.44
2019-04-04T10:31:13.044Z,11.20
2019-04-04T10:33:42.886Z,11.14
2019-04-04T10:36:12.917Z,11.04
2019-04-04T10:38:42.850Z,10.91
2019-04-04T10:41:12.728Z,10.80
2019-04-04T10:43:42.519Z,10.76
2019-04-04T10:46:12.709Z,10.84
2019-04-04T10:48:43.700Z,10.76
2019-04-04T10:51:13.995Z,10.78
2019-04-04T10:53:43.945Z,10.78
2019-04-04T10:56:13.745Z,11.10
2019-04-04T10:58:43.512Z,11.16
2019-04-04T11:01:13.816Z,11.35
2019-04-04T11:03:43.729Z,11.54
2019-04-04T11:06:13.806Z,11.63
2019-04-04T11:08:44.705Z,11.24
2019-04-04T11:11:14.594Z,11.28
2019-04-04T11:13:44.423Z,11.45
2019-04-04T11:16:14.325Z,11.73
2019-04-04T11:18:44.215Z,12.04
2019-04-04T11:21:14.052Z,12.09
2019-04-04T11:23:44.120Z,11.95
2019-04-04T11:26:14.434Z,11.72
2019-04-04T11:28:44.268Z,11.68
2019-04-04T11:31:15.070Z,11.74
2019-04-04T11:33:45.089Z,11.65
2019-04-04T11:36:15.105Z,11.62
2019-04-04T11:38:45.875Z,11.32
2019-04-04T11:41:15.854Z,11.12
2019-04-04T11:43:45.663Z,11.19
2019-04-04T11:46:15.687Z,11.17
2019-04-04T11:48:45.602Z,11.32
2019-04-04T11:51:15.817Z,11.49
2019-04-04T11:53:45.653Z,11.59
2019-04-04T11:56:15.556Z,11.31
2019-04-04T11:58:45.399Z,11.32
2019-04-04T12:01:15.656Z,11.52
2019-04-04T12:03:45.550Z,11.63
2019-04-04T12:06:15.639Z,11.69
2019-04-04T12:08:45.639Z,11.53
2019-04-04T12:11:15.549Z,11.13
2019-04-04T12:13:45.568Z,11.04
2019-04-04T12:16:15.800Z,10.96
2019-04-04T12:18:45.924Z,10.87
2019-04-04T12:21:15.939Z,11.00
2019-04-04T12:23:46.070Z,11.13
2019-04-04T12:26:16.144Z,11.27
2019-04-04T12:28:46.321Z,11.21
2019-04-04T12:31:16.564Z,11.14
2019-04-04T12:33:46.665Z,11.17
2019-04-04T12:36:24.439Z,11.21
2019-04-04T12:38:48.533Z,11.13
2019-04-04T12:41:18.507Z,11.09
2019-04-04T12:43:48.663Z,10.99
2019-04-04T12:46:18.566Z,10.88
2019-04-04T12:48:48.423Z,10.87
2019-04-04T12:51:18.279Z,10.74
2019-04-04T12:53:48.346Z,10.73
2019-04-04T12:56:19.222Z,10.80
2019-04-04T12:58:49.042Z,10.85
2019-04-04T13:01:21.299Z,10.84
2019-04-04T13:03:50.679Z,10.88
2019-04-04T13:06:20.651Z,10.96
2019-04-04T13:08:51.805Z,10.96
2019-04-04T13:11:21.564Z,10.95
2019-04-04T13:13:51.486Z,10.99
2019-04-04T13:16:21.472Z,10.93
2019-04-04T13:18:51.434Z,10.89
2019-04-04T13:21:21.711Z,10.93
2019-04-04T13:23:51.594Z,11.11
2019-04-04T13:26:21.888Z,11.17
2019-04-04T13:28:51.753Z,11.11
2019-04-04T13:31:22.498Z,11.16
2019-04-04T13:33:52.270Z,11.07
2019-04-04T13:36:22.133Z,11.01
2019-04-04T13:38:54.910Z,10.91
2019-04-04T13:41:23.540Z,10.81
2019-04-04T13:43:54.231Z,10.89
2019-04-04T13:46:26.722Z,10.94
2019-04-04T13:48:56.537Z,10.89
2019-04-04T13:51:26.314Z,10.86
2019-04-04T13:53:57.117Z,10.90
2019-04-04T13:56:29.238Z,11.01
2019-04-04T13:59:01.016Z,11.10
2019-04-04T14:01:30.429Z,11.04
2019-04-04T14:04:00.369Z,11.04
2019-04-04T14:06:30.665Z,11.03
2019-04-04T14:09:00.586Z,11.01
2019-04-04T14:11:30.703Z,11.00
2019-04-04T14:14:00.561Z,10.89
2019-04-04T14:16:30.419Z,10.83
2019-04-04T14:19:00.247Z,10.80
2019-04-04T14:21:30.504Z,10.79
2019-04-04T14:24:12.382Z,10.84
2019-04-04T14:26:32.110Z,10.84
2019-04-04T14:29:04.490Z,10.72
2019-04-04T14:31:33.378Z,10.57
2019-04-04T14:34:03.200Z,10.42
2019-04-04T14:36:33.335Z,10.36
2019-04-04T14:39:04.894Z,10.37
2019-04-04T14:41:34.888Z,10.31
2019-04-04T14:44:04.932Z,10.28
2019-04-04T14:46:34.888Z,10.24
2019-04-04T14:49:04.792Z,10.21
2019-04-04T14:51:34.659Z,10.19
2019-04-04T14:54:04.915Z,10.16
2019-04-04T14:56:34.889Z,10.15
2019-04-04T14:59:04.991Z,10.08
2019-04-04T15:01:35.149Z,10.03
2019-04-04T15:04:05.452Z,10.03
2019-04-04T15:06:35.447Z,9.99
2019-04-04T15:09:08.794Z,10.00
2019-04-04T15:11:38.722Z,10.07
2019-04-04T15:14:08.617Z,10.15
2019-04-04T15:16:38.439Z,10.20
2019-04-04T15:19:08.405Z,10.25
2019-04-04T15:21:38.793Z,10.35
2019-04-04T15:24:08.601Z,10.56
2019-04-04T15:26:38.966Z,10.66
2019-04-04T15:29:08.823Z,10.63
2019-04-04T15:31:40.220Z,10.47
2019-04-04T15:34:10.315Z,10.34
2019-04-04T15:36:40.512Z,10.35
2019-04-04T15:39:10.426Z,10.29
2019-04-04T15:41:40.371Z,10.33
2019-04-04T15:44:10.176Z,10.26
2019-04-04T15:46:40.377Z,10.22
2019-04-04T15:49:10.257Z,10.22
2019-04-04T15:51:40.202Z,10.21
2019-04-04T15:54:10.111Z,10.23
2019-04-04T15:56:39.980Z,10.23
2019-04-04T15:59:09.811Z,10.22
2019-04-04T16:01:40.029Z,10.27
2019-04-04T16:04:10.130Z,10.31
2019-04-04T16:06:40.130Z,10.33
2019-04-04T16:09:10.203Z,10.31
2019-04-04T16:11:49.426Z,10.31
2019-04-04T16:14:11.949Z,10.52
2019-04-04T16:16:41.954Z,10.73
2019-04-04T16:19:13.209Z,10.88
2019-04-04T16:21:43.245Z,10.93
2019-04-04T16:24:13.397Z,10.93
2019-04-04T16:26:44.040Z,10.91
2019-04-04T16:29:13.970Z,10.77
2019-04-04T16:31:43.884Z,10.71
2019-04-04T16:34:14.526Z,10.69
2019-04-04T16:36:44.658Z,10.71
2019-04-04T16:39:14.536Z,10.70
2019-04-04T16:41:44.574Z,10.68
2019-04-04T16:44:14.397Z,10.66
2019-04-04T16:46:44.370Z,10.58
2019-04-04T16:49:14.211Z,10.60
2019-04-04T16:51:44.188Z,10.61
2019-04-04T16:54:14.310Z,10.60
2019-04-04T16:56:44.092Z,10.61
2019-04-04T16:59:14.028Z,10.62
2019-04-04T17:01:43.827Z,10.62
2019-04-04T17:04:13.755Z,10.63
2019-04-04T17:06:44.059Z,10.59
2019-04-04T17:09:14.141Z,10.59
2019-04-04T17:11:44.045Z,10.51
2019-04-04T17:14:14.186Z,10.47
2019-04-04T17:16:44.136Z,10.43
2019-04-04T17:19:14.211Z,10.37
2019-04-04T17:21:44.070Z,10.32
2019-04-04T17:24:13.824Z,10.31
2019-04-04T17:26:44.136Z,10.28
2019-04-04T17:29:14.000Z,10.32
2019-04-04T17:31:43.785Z,10.35
2019-04-04T17:34:13.618Z,10.33
2019-04-04T17:36:43.324Z,10.31
2019-04-04T17:39:13.254Z,10.27
2019-04-04T17:41:43.605Z,10.21
2019-04-04T17:44:13.550Z,10.17
2019-04-04T17:46:43.761Z,10.21
2019-04-04T17:49:13.595Z,10.21
2019-04-04T17:51:43.683Z,10.20
2019-04-04T17:54:13.471Z,10.17
2019-04-04T17:56:43.380Z,10.13
2019-04-04T17:59:13.230Z,10.15
2019-04-04T18:01:43.186Z,9.96
2019-04-04T18:04:13.066Z,10.14
2019-04-04T18:06:43.168Z,10.13
2019-04-04T18:09:13.252Z,10.15
2019-04-04T18:11:43.225Z,10.15
2019-04-04T18:14:13.357Z,10.09
2019-04-04T18:16:43.194Z,10.09
2019-04-04T18:19:12.913Z,10.08
2019-04-04T18:21:43.896Z,10.03
2019-04-04T18:24:13.952Z,10.01
2019-04-04T18:26:43.992Z,10.02
2019-04-04T18:29:13.912Z,9.94
2019-04-04T18:31:43.969Z,9.99
2019-04-04T18:34:13.810Z,9.99
2019-04-04T18:36:43.891Z,9.94
2019-04-04T18:39:13.923Z,9.83
2019-04-04T18:41:43.903Z,9.76
2019-04-04T18:44:13.870Z,9.74
2019-04-04T18:46:43.826Z,9.76
2019-04-04T18:49:13.645Z,9.79
2019-04-04T18:51:43.623Z,9.78
2019-04-04T18:54:13.654Z,9.76
2019-04-04T18:56:43.874Z,9.71
2019-04-04T18:59:13.863Z,9.71
2019-04-04T19:01:43.919Z,9.71
2019-04-04T19:04:15.189Z,9.70
2019-04-04T19:06:45.112Z,9.66
2019-04-04T19:09:16.088Z,9.60
2019-04-04T19:11:46.306Z,9.57
2019-04-04T19:14:16.400Z,9.55
2019-04-04T19:16:46.427Z,9.56
2019-04-04T19:19:16.478Z,9.48
2019-04-04T19:21:46.626Z,9.34
2019-04-04T19:24:16.598Z,9.39
2019-04-04T19:26:46.636Z,9.45
2019-04-04T19:29:16.546Z,9.48
2019-04-04T19:31:46.522Z,9.43
2019-04-04T19:34:16.541Z,9.42
2019-04-04T19:36:46.536Z,9.40
2019-04-04T19:39:18.120Z,9.39
2019-04-04T19:41:48.214Z,9.43
2019-04-04T19:44:18.687Z,9.47
2019-04-04T19:46:48.834Z,9.42
2019-04-04T19:49:19.213Z,9.37
2019-04-04T19:51:49.270Z,9.43
2019-04-04T19:54:22.014Z,9.43
2019-04-04T19:56:52.088Z,9.48
2019-04-04T19:59:21.960Z,9.51
2019-04-04T20:01:51.839Z,9.47
2019-04-04T20:04:21.982Z,9.41
2019-04-04T20:06:51.954Z,9.37
2019-04-04T20:09:22.044Z,9.32
2019-04-04T20:11:52.065Z,9.28
2019-04-04T20:14:22.101Z,9.28
2019-04-04T20:16:52.174Z,9.30
2019-04-04T20:19:22.524Z,9.31
2019-04-04T20:21:52.513Z,9.33
2019-04-04T20:24:22.683Z,9.35
2019-04-04T20:26:52.710Z,9.34
2019-04-04T20:29:22.724Z,9.37
2019-04-04T20:31:52.606Z,9.36
2019-04-04T20:34:23.418Z,9.33
2019-04-04T20:36:53.748Z,9.32
2019-04-04T20:39:23.636Z,9.28
2019-04-04T20:41:53.522Z,9.27
2019-04-04T20:44:23.495Z,9.26
2019-04-04T20:46:53.973Z,9.21
2019-04-04T20:49:26.019Z,9.21
2019-04-04T20:51:55.972Z,9.19
2019-04-04T20:54:26.041Z,9.21
2019-04-04T20:56:56.266Z,9.24
2019-04-04T20:59:28.055Z,9.24
2019-04-04T21:01:57.919Z,9.22
2019-04-04T21:04:27.901Z,9.21
2019-04-04T21:06:58.219Z,9.20
2019-04-04T21:09:28.372Z,9.20
2019-04-04T21:11:58.325Z,9.20
2019-04-04T21:14:28.594Z,9.22
2019-04-04T21:16:59.082Z,9.19
2019-04-04T21:19:28.913Z,9.16
2019-04-04T21:21:59.128Z,9.18
2019-04-04T21:24:29.114Z,9.13
2019-04-04T21:26:59.343Z,9.08
2019-04-04T21:29:29.244Z,9.09
2019-04-04T21:32:00.126Z,8.99
2019-04-04T21:34:29.963Z,8.98
2019-04-04T21:36:59.927Z,8.95
2019-04-04T21:39:33.005Z,8.95
2019-04-04T21:42:02.570Z,8.94
2019-04-04T21:44:32.439Z,8.93
2019-04-04T21:47:02.323Z,8.93
2019-04-04T21:49:32.229Z,8.89
2019-04-04T21:52:02.019Z,8.95
2019-04-04T21:54:32.145Z,8.95
2019-04-04T21:57:02.027Z,8.93
2019-04-04T21:59:32.037Z,8.92
2019-04-04T22:02:02.166Z,8.96
2019-04-04T22:04:32.031Z,9.00
2019-04-04T22:07:01.921Z,9.03
2019-04-04T22:09:33.722Z,9.01
2019-04-04T22:12:03.473Z,8.99
2019-04-04T22:14:33.386Z,8.99
2019-04-04T22:17:03.446Z,8.94
2019-04-04T22:19:34.184Z,8.91
2019-04-04T22:22:05.111Z,8.88
2019-04-04T22:24:35.023Z,8.92
2019-04-04T22:27:05.054Z,8.96
2019-04-04T22:29:36.289Z,8.95
2019-04-04T22:32:06.202Z,8.94
2019-04-04T22:34:36.092Z,8.99
2019-04-04T22:37:06.136Z,8.96
2019-04-04T22:39:36.308Z,8.98
2019-04-04T22:42:06.212Z,9.01
2019-04-04T22:44:37.406Z,9.02
2019-04-04T22:47:07.276Z,8.99
2019-04-04T22:49:37.104Z,9.01
2019-04-04T22:52:06.886Z,9.04
2019-04-04T22:54:36.973Z,9.01
2019-04-04T22:57:07.024Z,8.97
2019-04-04T22:59:36.905Z,8.95
2019-04-04T23:02:06.780Z,8.99
2019-04-04T23:04:42.764Z,9.01
2019-04-04T23:07:12.525Z,8.93
2019-04-04T23:09:42.499Z,8.95
2019-04-04T23:12:12.346Z,8.95
2019-04-04T23:14:48.012Z,8.94
2019-04-04T23:17:13.655Z,8.91
2019-04-04T23:19:43.407Z,8.89
2019-04-04T23:22:13.451Z,8.90
2019-04-04T23:24:43.868Z,8.88
2019-04-04T23:27:13.923Z,8.90
2019-04-04T23:29:45.815Z,8.88
2019-04-04T23:32:15.885Z,8.87
2019-04-04T23:34:45.627Z,8.87
2019-04-04T23:37:15.674Z,8.83
2019-04-04T23:39:45.428Z,8.78
2019-04-04T23:42:15.773Z,8.81
2019-04-04T23:44:45.970Z,8.82
2019-04-04T23:47:15.848Z,8.79
2019-04-04T23:49:45.698Z,8.75
2019-04-04T23:52:15.710Z,8.72
2019-04-04T23:54:45.539Z,8.74
2019-04-04T23:57:16.400Z,8.78
2019-04-04T23:59:46.306Z,8.77
